createdAt,value
2023-03-24T00:06:09.332Z,99.28
2023-03-24T00:12:52.665Z,99.80
2023-03-24T00:19:38.537Z,99.38
2023-03-24T00:26:22.133Z,98.48
2023-03-24T00:33:04.660Z,97.93
2023-03-24T00:39:46.990Z,97.12
2023-03-24T00:46:29.655Z,96.61
2023-03-24T00:53:17.064Z,96.53
2023-03-24T00:59:59.234Z,97.78
2023-03-24T01:06:42.170Z,98.34
2023-03-24T01:13:29.328Z,99.41
2023-03-24T01:20:12.169Z,100.00
2023-03-24T01:26:54.464Z,100.00
2023-03-24T01:33:38.088Z,100.00
2023-03-24T01:40:28.239Z,100.00
2023-03-24T01:47:10.514Z,100.00
2023-03-24T01:54:22.307Z,100.00
2023-03-24T02:01:07.928Z,100.00
2023-03-24T02:08:50.692Z,100.00
2023-03-24T02:15:38.892Z,100.00
2023-03-24T02:23:01.196Z,100.00
2023-03-24T02:30:31.924Z,100.00
2023-03-24T02:37:55.117Z,100.00
2023-03-24T02:45:02.271Z,100.00
2023-03-24T02:51:52.267Z,100.00
2023-03-24T02:59:00.448Z,100.00
2023-03-24T03:05:52.140Z,100.00
2023-03-24T03:12:38.164Z,100.00
2023-03-24T03:19:23.057Z,100.00
2023-03-24T03:26:13.061Z,100.00
2023-03-24T03:33:26.149Z,100.00
2023-03-24T03:40:20.666Z,100.00
2023-03-24T03:47:07.623Z,100.00
2023-03-24T03:54:02.543Z,100.00
2023-03-24T04:00:46.689Z,100.00
2023-03-24T04:08:18.066Z,100.00
2023-03-24T04:15:45.102Z,100.00
2023-03-24T04:23:09.312Z,100.00
2023-03-24T04:29:59.884Z,100.00
2023-03-24T04:36:54.463Z,100.00
2023-03-24T04:43:58.177Z,100.00
2023-03-24T04:50:43.953Z,100.00
2023-03-24T04:57:31.641Z,100.00
2023-03-24T05:04:26.834Z,100.00
2023-03-24T05:11:09.821Z,100.00
2023-03-24T05:17:55.720Z,100.00
2023-03-24T05:24:40.698Z,100.00
2023-03-24T05:31:23.401Z,100.00
2023-03-24T05:38:13.662Z,100.00
2023-03-24T05:45:00.098Z,100.00
2023-03-24T05:51:43.096Z,100.00
2023-03-24T05:58:26.196Z,100.00
2023-03-24T06:05:12.912Z,100.00
2023-03-24T06:11:56.395Z,100.00
2023-03-24T06:18:44.225Z,100.00
2023-03-24T06:25:36.964Z,100.00
2023-03-24T06:32:30.157Z,100.00
2023-03-24T06:39:13.154Z,100.00
2023-03-24T06:45:56.543Z,100.00
2023-03-24T06:52:39.598Z,100.00
2023-03-24T06:59:24.628Z,100.00
2023-03-24T07:06:07.586Z,100.00
2023-03-24T07:12:50.246Z,100.00
2023-03-24T07:19:32.534Z,100.00
2023-03-24T07:26:32.964Z,100.00
2023-03-24T07:33:40.642Z,100.00
2023-03-24T07:40:23.392Z,100.00
2023-03-24T07:47:05.833Z,100.00
2023-03-24T07:53:48.534Z,100.00
2023-03-24T08:00:40.040Z,100.00
2023-03-24T08:07:39.281Z,100.00
2023-03-24T08:14:23.743Z,100.00
2023-03-24T08:21:07.204Z,100.00
2023-03-24T08:27:49.482Z,98.47
2023-03-24T08:34:31.790Z,95.72
2023-03-24T08:41:13.949Z,93.12
2023-03-24T08:47:59.130Z,93.26
2023-03-24T08:54:41.387Z,94.41
2023-03-24T09:01:24.084Z,95.53
2023-03-24T09:08:08.090Z,97.48
2023-03-24T09:14:51.080Z,98.25
2023-03-24T09:21:33.294Z,98.65
2023-03-24T09:28:16.292Z,97.86
2023-03-24T09:34:58.461Z,95.86
2023-03-24T09:41:41.477Z,92.18
2023-03-24T09:48:39.475Z,90.30
2023-03-24T09:55:28.094Z,90.03
2023-03-24T10:02:18.288Z,87.26
2023-03-24T10:09:33.636Z,85.08
2023-03-24T10:16:45.862Z,83.42
2023-03-24T10:24:21.849Z,82.39
2023-03-24T10:31:11.678Z,82.71
2023-03-24T10:38:00.160Z,83.59
2023-03-24T10:44:42.503Z,82.54
2023-03-24T10:51:34.917Z,79.70
2023-03-24T10:58:49.695Z,78.12
2023-03-24T11:05:40.834Z,77.17
2023-03-24T11:12:31.212Z,73.90
2023-03-24T11:19:23.417Z,74.63
2023-03-24T11:26:12.668Z,75.30
2023-03-24T11:32:55.415Z,75.15
2023-03-24T11:39:37.778Z,74.07
2023-03-24T11:46:21.304Z,74.22
2023-03-24T11:53:22.090Z,72.85
2023-03-24T12:00:20.697Z,73.02
2023-03-24T12:07:25.174Z,72.74
2023-03-24T12:14:09.687Z,74.17
2023-03-24T12:21:11.108Z,76.48
2023-03-24T12:28:11.591Z,80.43
2023-03-24T12:35:00.193Z,85.34
2023-03-24T12:42:19.590Z,91.08
2023-03-24T12:49:21.072Z,95.45
2023-03-24T12:56:27.895Z,98.90
2023-03-24T13:03:29.525Z,100.00
2023-03-24T13:10:16.033Z,100.00
2023-03-24T13:17:13.327Z,100.00
2023-03-24T13:24:10.025Z,100.00
2023-03-24T13:30:54.400Z,100.00
2023-03-24T13:38:12.435Z,100.00
2023-03-24T13:44:59.450Z,100.00
2023-03-24T13:51:46.264Z,99.95
2023-03-24T13:58:48.483Z,100.00
2023-03-24T14:05:57.681Z,100.00
2023-03-24T14:13:02.063Z,100.00
2023-03-24T14:20:10.657Z,100.00
2023-03-24T14:26:53.206Z,100.00
2023-03-24T14:33:35.717Z,100.00
2023-03-24T14:40:40.099Z,100.00
2023-03-24T14:47:29.874Z,98.84
2023-03-24T14:54:49.050Z,98.51
2023-03-24T15:01:38.908Z,98.06
2023-03-24T15:08:23.701Z,97.72
2023-03-24T15:15:13.991Z,98.97
2023-03-24T15:22:12.849Z,96.46
2023-03-24T15:29:06.151Z,93.21
2023-03-24T15:35:59.884Z,90.87
2023-03-24T15:42:43.931Z,88.82
2023-03-24T15:49:35.627Z,88.79
2023-03-24T15:56:29.178Z,88.20
2023-03-24T16:03:17.775Z,89.70
2023-03-24T16:10:05.976Z,91.06
2023-03-24T16:16:48.424Z,91.91
2023-03-24T16:23:31.851Z,92.37
2023-03-24T16:30:25.101Z,95.29
2023-03-24T16:37:08.116Z,80.88
2023-03-24T16:43:50.648Z,84.65
2023-03-24T16:50:42.335Z,89.52
2023-03-24T16:57:24.573Z,92.23
2023-03-24T17:04:11.467Z,93.58
2023-03-24T17:10:54.394Z,94.99
2023-03-24T17:17:36.823Z,95.62
2023-03-24T17:24:20.143Z,96.51
2023-03-24T17:31:02.411Z,97.14
2023-03-24T17:37:44.826Z,97.65
2023-03-24T17:44:28.434Z,99.43
2023-03-24T17:51:10.709Z,99.64
2023-03-24T17:57:52.933Z,99.45
2023-03-24T18:04:35.594Z,97.30
2023-03-24T18:11:18.063Z,96.95
2023-03-24T18:18:01.081Z,97.08
2023-03-24T18:24:43.490Z,97.62
2023-03-24T18:31:27.177Z,98.64
2023-03-24T18:38:09.455Z,98.20
2023-03-24T18:44:51.641Z,98.44
2023-03-24T18:51:35.619Z,99.08
2023-03-24T18:58:18.831Z,100.00
2023-03-24T19:05:02.445Z,100.00
2023-03-24T19:11:45.093Z,100.00
2023-03-24T19:18:27.381Z,100.00
2023-03-24T19:25:09.943Z,100.00
2023-03-24T19:31:52.145Z,100.00
2023-03-24T19:38:35.991Z,100.00
2023-03-24T19:45:19.248Z,99.53
2023-03-24T19:52:01.649Z,99.20
2023-03-24T19:58:43.890Z,98.58
2023-03-24T20:05:26.306Z,96.84
2023-03-24T20:12:08.679Z,96.50
2023-03-24T20:18:51.104Z,96.15
2023-03-24T20:25:33.331Z,96.10
2023-03-24T20:32:15.606Z,95.21
2023-03-24T20:38:59.669Z,95.21
2023-03-24T20:45:41.968Z,95.48
2023-03-24T20:52:24.499Z,95.57
2023-03-24T20:59:07.404Z,94.83
2023-03-24T21:05:50.692Z,95.26
2023-03-24T21:12:34.185Z,95.61
2023-03-24T21:19:16.437Z,96.96
2023-03-24T21:25:58.855Z,98.50
2023-03-24T21:32:41.133Z,99.82
2023-03-24T21:39:24.115Z,100.00
2023-03-24T21:46:07.088Z,100.00
2023-03-24T21:52:54.026Z,100.00
2023-03-24T21:59:37.739Z,100.00
2023-03-24T22:06:22.064Z,100.00
2023-03-24T22:13:04.884Z,100.00
2023-03-24T22:19:47.105Z,100.00
2023-03-24T22:26:29.306Z,100.00
2023-03-24T22:33:11.586Z,100.00
2023-03-24T22:39:53.832Z,100.00
2023-03-24T22:46:36.571Z,100.00
2023-03-24T22:53:18.947Z,100.00
2023-03-24T23:00:02.004Z,100.00
2023-03-24T23:06:46.818Z,100.00
2023-03-24T23:13:30.816Z,100.00
2023-03-24T23:20:14.926Z,100.00
2023-03-24T23:26:57.226Z,100.00
2023-03-24T23:33:42.036Z,100.00
2023-03-24T23:40:24.295Z,100.00
2023-03-24T23:47:06.982Z,100.00
2023-03-24T23:53:49.801Z,100.00
